Time;durP1;ratioP1;P1;durP2;ratioP2;P2;SDS_P1;SDS_P2;PMS_P1;PMS_P2;Temp;Humidity;BMP_temperature;BMP_pressure;BME280_temperature;BME280_humidity;BME280_pressure;Samples;Min_cycle;Max_cycle;Signal;HPM_P1;HPM_P2
2020/06/21 00:00:32;;;;;;;2.11;1.91;;;;;;;20.47;55.67;101011.20;;;;-48
2020/06/21 00:03:32;;;;;;;2.11;1.91;;;;;;;20.48;55.65;101013.55;;;;-48
2020/06/21 00:06:33;;;;;;;2.00;1.90;;;;;;;20.47;55.64;101017.47;;;;-48
2020/06/21 00:09:33;;;;;;;2.13;1.93;;;;;;;20.47;55.63;101015.50;;;;-48
2020/06/21 00:12:33;;;;;;;2.02;1.85;;;;;;;20.47;55.68;101011.53;;;;-48
2020/06/21 00:15:33;;;;;;;1.99;1.89;;;;;;;20.47;55.66;101009.68;;;;-47
2020/06/21 00:18:32;;;;;;;2.13;1.98;;;;;;;20.46;55.65;101004.50;;;;-48
2020/06/21 00:21:33;;;;;;;1.95;1.85;;;;;;;20.45;55.65;101002.81;;;;-48
2020/06/21 00:24:33;;;;;;;2.09;1.99;;;;;;;20.45;55.65;101000.47;;;;-48
2020/06/21 00:27:33;;;;;;;1.94;1.81;;;;;;;20.45;55.65;101003.11;;;;-48
2020/06/21 00:30:33;;;;;;;1.90;1.80;;;;;;;20.45;55.67;101006.80;;;;-48
2020/06/21 00:33:33;;;;;;;1.97;1.87;;;;;;;20.45;55.62;101004.72;;;;-47
2020/06/21 00:36:33;;;;;;;2.17;1.98;;;;;;;20.45;55.62;101000.35;;;;-48
2020/06/21 00:39:32;;;;;;;2.22;2.02;;;;;;;20.44;55.65;101005.68;;;;-48
2020/06/21 00:42:33;;;;;;;2.07;1.97;;;;;;;20.44;55.67;101006.02;;;;-48
2020/06/21 00:45:33;;;;;;;1.99;1.89;;;;;;;20.44;55.66;101008.26;;;;-48
2020/06/21 00:48:33;;;;;;;2.05;1.91;;;;;;;20.44;55.62;101005.84;;;;-48
2020/06/21 00:51:33;;;;;;;2.04;1.81;;;;;;;20.44;55.65;101007.25;;;;-48
2020/06/21 00:54:33;;;;;;;2.41;1.97;;;;;;;20.43;55.63;101008.59;;;;-48
2020/06/21 00:57:33;;;;;;;1.89;1.79;;;;;;;20.42;55.63;101005.19;;;;-48
2020/06/21 01:00:32;;;;;;;1.99;1.89;;;;;;;20.42;55.63;101005.52;;;;-48
2020/06/21 01:03:32;;;;;;;2.03;1.90;;;;;;;20.42;55.64;101005.58;;;;-48
2020/06/21 01:06:32;;;;;;;1.99;1.89;;;;;;;20.42;55.60;101004.34;;;;-48
2020/06/21 01:09:33;;;;;;;2.03;1.93;;;;;;;20.41;55.63;100998.26;;;;-47
2020/06/21 01:12:33;;;;;;;1.95;1.85;;;;;;;20.41;55.64;100996.30;;;;-48
2020/06/21 01:15:33;;;;;;;1.97;1.87;;;;;;;20.42;55.59;100995.51;;;;-48
2020/06/21 01:18:32;;;;;;;2.01;1.90;;;;;;;20.41;55.58;100989.09;;;;-48
2020/06/21 01:21:32;;;;;;;2.03;1.90;;;;;;;20.40;55.63;100989.61;;;;-48
2020/06/21 01:24:32;;;;;;;1.90;1.80;;;;;;;20.40;55.60;100987.87;;;;-48
2020/06/21 01:27:33;;;;;;;2.04;1.92;;;;;;;20.40;55.58;100991.28;;;;-48
2020/06/21 01:30:33;;;;;;;2.19;1.99;;;;;;;20.39;55.63;100987.48;;;;-48
2020/06/21 01:33:33;;;;;;;2.04;1.94;;;;;;;20.39;55.60;100987.14;;;;-48
2020/06/21 01:36:33;;;;;;;2.07;1.97;;;;;;;20.39;55.62;100982.55;;;;-48
2020/06/21 01:39:32;;;;;;;2.07;1.91;;;;;;;20.39;55.63;100983.45;;;;-48
2020/06/21 01:42:32;;;;;;;2.01;1.91;;;;;;;20.38;55.61;100981.73;;;;-48
2020/06/21 01:45:32;;;;;;;2.07;1.91;;;;;;;20.38;55.61;100978.98;;;;-48
2020/06/21 01:48:33;;;;;;;2.10;1.99;;;;;;;20.38;55.62;100976.63;;;;-48
2020/06/21 01:51:33;;;;;;;2.02;1.92;;;;;;;20.38;55.57;100974.95;;;;-48
2020/06/21 01:54:33;;;;;;;2.07;1.95;;;;;;;20.38;55.58;100973.00;;;;-48
2020/06/21 01:57:33;;;;;;;2.52;2.01;;;;;;;20.38;55.56;100973.84;;;;-48
2020/06/21 02:00:32;;;;;;;2.07;1.97;;;;;;;20.37;55.57;100971.78;;;;-48
2020/06/21 02:03:33;;;;;;;2.11;1.91;;;;;;;20.37;55.57;100972.95;;;;-48
2020/06/21 02:06:33;;;;;;;2.05;1.95;;;;;;;20.37;55.54;100971.27;;;;-48
2020/06/21 02:09:33;;;;;;;2.03;1.91;;;;;;;20.36;55.55;100972.23;;;;-48
2020/06/21 02:12:33;;;;;;;1.95;1.85;;;;;;;20.36;55.53;100968.70;;;;-48
2020/06/21 02:15:33;;;;;;;2.00;1.90;;;;;;;20.35;55.53;100969.34;;;;-48
2020/06/21 02:18:32;;;;;;;2.00;1.90;;;;;;;20.36;55.52;100971.22;;;;-48
2020/06/21 02:21:32;;;;;;;1.91;1.80;;;;;;;20.36;55.51;100974.42;;;;-48
2020/06/21 02:24:32;;;;;;;2.12;1.94;;;;;;;20.35;55.54;100969.67;;;;-48
2020/06/21 02:27:33;;;;;;;2.25;2.11;;;;;;;20.35;55.51;100967.98;;;;-48
2020/06/21 02:30:32;;;;;;;1.90;1.80;;;;;;;20.35;55.50;100969.33;;;;-48
2020/06/21 02:33:33;;;;;;;1.96;1.86;;;;;;;20.35;55.55;100972.02;;;;-48
2020/06/21 02:36:33;;;;;;;2.22;2.01;;;;;;;20.34;55.51;100965.36;;;;-48
2020/06/21 02:39:32;;;;;;;2.19;2.01;;;;;;;20.34;55.52;100962.51;;;;-47
2020/06/21 02:42:32;;;;;;;1.96;1.86;;;;;;;20.34;55.51;100957.64;;;;-48
2020/06/21 02:45:33;;;;;;;2.18;2.05;;;;;;;20.34;55.51;100958.71;;;;-48
2020/06/21 02:48:33;;;;;;;1.90;1.80;;;;;;;20.34;55.49;100964.69;;;;-48
2020/06/21 02:51:33;;;;;;;2.05;1.93;;;;;;;20.34;55.54;100968.87;;;;-48
2020/06/21 02:54:33;;;;;;;1.99;1.89;;;;;;;20.34;55.52;100965.42;;;;-47
2020/06/21 02:57:33;;;;;;;2.10;2.00;;;;;;;20.33;55.54;100964.65;;;;-48
2020/06/21 03:00:32;;;;;;;2.81;1.91;;;;;;;20.33;55.49;100963.36;;;;-48
2020/06/21 03:03:32;;;;;;;1.99;1.89;;;;;;;20.33;55.51;100965.10;;;;-48
2020/06/21 03:06:33;;;;;;;2.09;1.99;;;;;;;20.33;55.48;100960.67;;;;-48
2020/06/21 03:09:33;;;;;;;2.34;2.00;;;;;;;20.33;55.52;100961.58;;;;-48
2020/06/21 03:12:33;;;;;;;2.02;1.92;;;;;;;20.32;55.48;100961.06;;;;-48
2020/06/21 03:15:33;;;;;;;2.27;2.12;;;;;;;20.32;55.48;100960.96;;;;-48
2020/06/21 03:18:32;;;;;;;2.07;1.90;;;;;;;20.32;55.50;100961.13;;;;-48
2020/06/21 03:21:33;;;;;;;1.93;1.83;;;;;;;20.32;55.46;100969.29;;;;-48
2020/06/21 03:24:32;;;;;;;2.09;1.94;;;;;;;20.32;55.49;100970.25;;;;-47
2020/06/21 03:27:33;;;;;;;2.22;2.06;;;;;;;20.31;55.49;100970.58;;;;-48
2020/06/21 03:30:33;;;;;;;2.25;2.05;;;;;;;20.31;55.47;100969.48;;;;-48
2020/06/21 03:33:33;;;;;;;2.00;1.90;;;;;;;20.31;55.44;100975.73;;;;-48
2020/06/21 03:36:33;;;;;;;2.27;2.07;;;;;;;20.30;55.47;100973.32;;;;-48
2020/06/21 03:39:32;;;;;;;2.24;2.06;;;;;;;20.31;55.46;100975.11;;;;-48
2020/06/21 03:42:32;;;;;;;2.09;1.98;;;;;;;20.30;55.45;100977.30;;;;-48
2020/06/21 03:45:32;;;;;;;2.01;1.91;;;;;;;20.30;55.46;100980.77;;;;-47
2020/06/21 03:48:33;;;;;;;2.22;2.02;;;;;;;20.30;55.43;100979.25;;;;-48
2020/06/21 03:51:33;;;;;;;2.21;2.00;;;;;;;20.30;55.48;100976.53;;;;-48
2020/06/21 03:54:33;;;;;;;2.01;1.91;;;;;;;20.29;55.44;100976.29;;;;-48
2020/06/21 03:57:32;;;;;;;2.06;1.96;;;;;;;20.29;55.45;100977.86;;;;-48
2020/06/21 04:00:32;;;;;;;2.16;2.02;;;;;;;20.29;55.45;100973.50;;;;-48
2020/06/21 04:03:32;;;;;;;2.07;1.95;;;;;;;20.28;55.41;100971.27;;;;-48
2020/06/21 04:06:33;;;;;;;2.31;2.19;;;;;;;20.28;55.43;100977.08;;;;-48
2020/06/21 04:09:33;;;;;;;2.00;1.90;;;;;;;20.28;55.40;100982.61;;;;-48
2020/06/21 04:12:33;;;;;;;2.10;2.00;;;;;;;20.28;55.44;100982.34;;;;-48
2020/06/21 04:15:33;;;;;;;2.11;1.95;;;;;;;20.28;55.42;100982.95;;;;-48
2020/06/21 04:18:32;;;;;;;2.49;2.29;;;;;;;20.28;55.39;100980.16;;;;-48
2020/06/21 04:21:32;;;;;;;2.43;2.23;;;;;;;20.28;55.43;100983.14;;;;-48
2020/06/21 04:24:32;;;;;;;2.31;2.11;;;;;;;20.27;55.40;100981.72;;;;-48
2020/06/21 04:27:33;;;;;;;2.19;2.03;;;;;;;20.27;55.42;100984.91;;;;-48
2020/06/21 04:30:33;;;;;;;2.13;2.03;;;;;;;20.28;55.45;100985.92;;;;-48
2020/06/21 04:33:33;;;;;;;2.50;2.12;;;;;;;20.27;55.45;100986.59;;;;-48
2020/06/21 04:36:32;;;;;;;2.31;2.11;;;;;;;20.27;55.40;100988.80;;;;-48
2020/06/21 04:39:32;;;;;;;3.25;2.19;;;;;;;20.27;55.46;100990.13;;;;-48
2020/06/21 04:42:32;;;;;;;2.35;2.15;;;;;;;20.27;55.43;100992.65;;;;-48
2020/06/21 04:45:32;;;;;;;2.43;2.23;;;;;;;20.27;55.42;100988.29;;;;-48
2020/06/21 04:48:33;;;;;;;2.57;2.37;;;;;;;20.26;55.43;100983.52;;;;-48
2020/06/21 04:51:33;;;;;;;2.33;2.17;;;;;;;20.26;55.42;100986.50;;;;-48
2020/06/21 04:54:32;;;;;;;2.49;2.20;;;;;;;20.26;55.40;100991.12;;;;-48
2020/06/21 04:57:32;;;;;;;2.38;2.18;;;;;;;20.27;55.42;100993.16;;;;-48
2020/06/21 05:00:32;;;;;;;2.12;2.02;;;;;;;20.26;55.44;100997.23;;;;-48
2020/06/21 05:03:32;;;;;;;2.78;2.29;;;;;;;20.25;55.39;101000.91;;;;-48
2020/06/21 05:06:32;;;;;;;2.26;2.07;;;;;;;20.26;55.38;101007.13;;;;-48
2020/06/21 05:09:33;;;;;;;2.64;2.34;;;;;;;20.26;55.38;101010.88;;;;-48
2020/06/21 05:12:33;;;;;;;2.41;2.21;;;;;;;20.25;55.34;101006.08;;;;-48
2020/06/21 05:15:32;;;;;;;2.29;2.09;;;;;;;20.25;55.38;101007.25;;;;-48
2020/06/21 05:18:32;;;;;;;2.52;2.32;;;;;;;20.25;55.36;101006.91;;;;-48
2020/06/21 05:21:32;;;;;;;2.52;2.32;;;;;;;20.25;55.41;101007.08;;;;-48
2020/06/21 05:24:32;;;;;;;2.39;2.19;;;;;;;20.25;55.35;101005.73;;;;-48
2020/06/21 05:27:33;;;;;;;2.26;2.11;;;;;;;20.25;55.40;101010.14;;;;-48
2020/06/21 05:30:33;;;;;;;2.50;2.30;;;;;;;20.24;55.38;101005.89;;;;-47
2020/06/21 05:33:32;;;;;;;2.33;2.19;;;;;;;20.24;55.34;101011.27;;;;-48
2020/06/21 05:36:32;;;;;;;2.29;2.17;;;;;;;20.25;55.36;101015.36;;;;-48
2020/06/21 05:39:32;;;;;;;2.30;2.10;;;;;;;20.24;55.37;101015.41;;;;-48
2020/06/21 05:42:32;;;;;;;2.19;2.09;;;;;;;20.25;55.39;101020.33;;;;-48
2020/06/21 05:45:33;;;;;;;2.25;2.07;;;;;;;20.25;55.37;101013.85;;;;-48
2020/06/21 05:48:33;;;;;;;2.38;2.17;;;;;;;20.24;55.38;101016.13;;;;-48
2020/06/21 05:51:33;;;;;;;2.23;2.04;;;;;;;20.24;55.36;101020.32;;;;-48
2020/06/21 05:54:32;;;;;;;2.29;2.17;;;;;;;20.24;55.36;101019.94;;;;-48
2020/06/21 05:57:32;;;;;;;2.39;2.19;;;;;;;20.24;55.39;101028.16;;;;-48
2020/06/21 06:00:32;;;;;;;2.29;2.17;;;;;;;20.25;55.31;101036.53;;;;-48
2020/06/21 06:03:32;;;;;;;2.39;2.19;;;;;;;20.24;55.31;101039.12;;;;-48
2020/06/21 06:06:33;;;;;;;2.30;2.13;;;;;;;20.24;55.41;101043.66;;;;-48
2020/06/21 06:09:32;;;;;;;2.13;2.03;;;;;;;20.25;55.41;101049.91;;;;-48
2020/06/21 06:12:32;;;;;;;2.10;2.00;;;;;;;20.24;55.33;101049.47;;;;-48
2020/06/21 06:15:32;;;;;;;2.40;2.20;;;;;;;20.24;55.39;101048.35;;;;-48
2020/06/21 06:18:32;;;;;;;2.63;2.25;;;;;;;20.23;55.44;101050.30;;;;-48
2020/06/21 06:21:32;;;;;;;2.38;2.18;;;;;;;20.24;55.50;101049.91;;;;-48
2020/06/21 06:24:32;;;;;;;2.29;2.09;;;;;;;20.23;55.50;101047.61;;;;-48
2020/06/21 06:27:32;;;;;;;2.47;2.27;;;;;;;20.23;55.43;101050.86;;;;-48
2020/06/21 06:30:33;;;;;;;2.28;2.09;;;;;;;20.23;55.46;101054.66;;;;-48
2020/06/21 06:33:32;;;;;;;2.14;1.97;;;;;;;20.24;55.47;101059.56;;;;-48
2020/06/21 06:36:32;;;;;;;2.31;2.11;;;;;;;20.24;55.41;101056.73;;;;-48
2020/06/21 06:39:32;;;;;;;2.92;2.25;;;;;;;20.24;55.51;101061.20;;;;-48
2020/06/21 06:42:32;;;;;;;2.33;2.20;;;;;;;20.24;55.50;101062.38;;;;-48
2020/06/21 06:45:33;;;;;;;2.45;2.25;;;;;;;20.23;55.40;101063.17;;;;-48
2020/06/21 06:48:33;;;;;;;2.18;2.02;;;;;;;20.23;55.48;101064.37;;;;-48
2020/06/21 06:51:32;;;;;;;2.30;2.10;;;;;;;20.24;55.58;101067.98;;;;-48
2020/06/21 06:54:32;;;;;;;2.32;2.11;;;;;;;20.24;55.51;101068.64;;;;-48
2020/06/21 06:57:32;;;;;;;2.31;2.11;;;;;;;20.23;55.49;101067.70;;;;-48
2020/06/21 07:00:32;;;;;;;2.20;2.05;;;;;;;20.24;55.38;101071.33;;;;-48
2020/06/21 07:03:32;;;;;;;2.45;2.25;;;;;;;20.23;55.43;101073.50;;;;-48
2020/06/21 07:06:33;;;;;;;2.53;2.33;;;;;;;20.23;55.52;101073.11;;;;-48
2020/06/21 07:09:33;;;;;;;2.74;2.10;;;;;;;20.24;55.46;101073.34;;;;-48
2020/06/21 07:12:32;;;;;;;2.19;2.09;;;;;;;20.23;55.45;101076.02;;;;-48
2020/06/21 07:15:32;;;;;;;2.10;2.00;;;;;;;20.23;55.54;101072.77;;;;-48
2020/06/21 07:18:32;;;;;;;2.31;2.11;;;;;;;20.23;55.45;101071.66;;;;-48
2020/06/21 07:21:32;;;;;;;2.41;2.21;;;;;;;20.23;55.41;101074.84;;;;-48
2020/06/21 07:24:33;;;;;;;2.40;2.24;;;;;;;20.23;55.49;101073.66;;;;-48
2020/06/21 07:27:33;;;;;;;2.39;2.19;;;;;;;20.23;55.54;101074.28;;;;-48
2020/06/21 07:30:33;;;;;;;2.37;2.19;;;;;;;20.23;55.50;101073.94;;;;-48
2020/06/21 07:33:32;;;;;;;2.47;2.27;;;;;;;20.23;55.45;101072.09;;;;-48
2020/06/21 07:36:32;;;;;;;2.09;1.99;;;;;;;20.23;55.43;101073.23;;;;-48
2020/06/21 07:39:32;;;;;;;2.20;2.10;;;;;;;20.23;55.43;101076.52;;;;-48
2020/06/21 07:44:32;;;;;;;2.39;2.19;;;;;;;20.23;55.46;101070.81;;;;-48
2020/06/21 07:47:33;;;;;;;2.11;2.01;;;;;;;20.23;55.42;101065.27;;;;-48
2020/06/21 07:50:32;;;;;;;2.30;2.13;;;;;;;20.23;55.46;101058.47;;;;-48
2020/06/21 07:53:32;;;;;;;2.40;2.20;;;;;;;20.23;55.41;101053.70;;;;-48
2020/06/21 07:56:32;;;;;;;2.11;2.01;;;;;;;20.22;55.38;101048.56;;;;-48
2020/06/21 07:59:32;;;;;;;2.22;2.12;;;;;;;20.23;55.39;101051.76;;;;-48
2020/06/21 08:02:32;;;;;;;2.17;2.01;;;;;;;20.22;55.39;101045.95;;;;-48
2020/06/21 08:05:32;;;;;;;2.32;2.15;;;;;;;20.23;55.35;101049.08;;;;-48
2020/06/21 08:08:33;;;;;;;2.23;2.04;;;;;;;20.22;55.36;101046.22;;;;-48
2020/06/21 08:11:32;;;;;;;2.07;1.89;;;;;;;20.22;55.38;101046.22;;;;-47
2020/06/21 08:14:32;;;;;;;2.29;2.15;;;;;;;20.21;55.35;101048.69;;;;-48
2020/06/21 08:17:32;;;;;;;2.20;2.00;;;;;;;20.22;55.32;101048.29;;;;-47
2020/06/21 08:20:32;;;;;;;2.31;2.11;;;;;;;20.23;55.38;101046.99;;;;-48
2020/06/21 08:23:32;;;;;;;2.41;2.21;;;;;;;20.22;55.33;101044.50;;;;-48
2020/06/21 08:26:32;;;;;;;2.21;2.05;;;;;;;20.22;55.34;101046.95;;;;-48
2020/06/21 08:29:32;;;;;;;2.39;2.22;;;;;;;20.23;55.33;101049.19;;;;-48
2020/06/21 08:32:32;;;;;;;2.36;2.20;;;;;;;20.22;55.36;101046.55;;;;-48
2020/06/21 08:35:32;;;;;;;2.10;2.00;;;;;;;20.22;55.30;101039.73;;;;-48
2020/06/21 08:38:32;;;;;;;2.30;2.10;;;;;;;20.23;55.32;101039.11;;;;-48
2020/06/21 08:41:32;;;;;;;2.34;2.14;;;;;;;20.22;55.35;101040.91;;;;-48
2020/06/21 08:44:32;;;;;;;2.40;2.20;;;;;;;20.23;55.28;101039.45;;;;-48
2020/06/21 08:47:32;;;;;;;2.33;2.13;;;;;;;20.22;55.30;101040.52;;;;-48
2020/06/21 08:50:32;;;;;;;2.32;2.12;;;;;;;20.22;55.29;101037.39;;;;-48
2020/06/21 08:53:32;;;;;;;2.25;2.05;;;;;;;20.21;55.28;101029.96;;;;-48
2020/06/21 08:56:32;;;;;;;2.34;2.14;;;;;;;20.23;55.25;101036.93;;;;-48
2020/06/21 08:59:32;;;;;;;2.33;2.13;;;;;;;20.22;55.31;101032.30;;;;-48
2020/06/21 09:02:32;;;;;;;2.32;2.12;;;;;;;20.22;55.24;101024.64;;;;-48
2020/06/21 09:05:32;;;;;;;2.10;2.00;;;;;;;20.22;55.27;101030.28;;;;-48
2020/06/21 09:08:32;;;;;;;2.31;2.10;;;;;;;20.22;55.25;101025.88;;;;-48
2020/06/21 09:11:32;;;;;;;2.47;2.10;;;;;;;20.22;55.25;101028.27;;;;-48
2020/06/21 09:14:32;;;;;;;2.32;2.12;;;;;;;20.22;55.27;101023.41;;;;-48
2020/06/21 09:17:32;;;;;;;2.29;2.09;;;;;;;20.23;55.27;101024.09;;;;-48
2020/06/21 09:20:32;;;;;;;2.98;2.12;;;;;;;20.22;55.25;101023.20;;;;-48
2020/06/21 09:23:33;;;;;;;2.28;2.07;;;;;;;20.22;55.25;101019.95;;;;-48
2020/06/21 09:26:32;;;;;;;2.30;2.10;;;;;;;20.22;55.21;101022.12;;;;-48
2020/06/21 09:29:32;;;;;;;2.29;2.09;;;;;;;20.23;55.24;101021.91;;;;-48
2020/06/21 09:32:32;;;;;;;2.30;2.10;;;;;;;20.24;55.56;101013.73;;;;-50
2020/06/21 09:35:32;;;;;;;2.38;2.18;;;;;;;20.26;55.71;101007.57;;;;-53
2020/06/21 09:38:32;;;;;;;2.75;2.05;;;;;;;20.27;55.78;101009.59;;;;-54
2020/06/21 09:41:32;;;;;;;3.59;2.27;;;;;;;20.30;55.83;101006.38;;;;-54
2020/06/21 09:44:32;;;;;;;3.65;2.11;;;;;;;20.32;55.90;101010.67;;;;-51
2020/06/21 09:47:32;;;;;;;4.49;2.22;;;;;;;20.33;56.17;101010.27;;;;-55
2020/06/21 09:50:32;;;;;;;4.06;2.49;;;;;;;20.38;56.54;101009.91;;;;-51
2020/06/21 09:53:32;;;;;;;8.33;2.63;;;;;;;20.39;56.36;101007.22;;;;-49
2020/06/21 09:56:32;;;;;;;7.85;2.73;;;;;;;20.42;56.39;101006.31;;;;-51
2020/06/21 09:59:32;;;;;;;11.01;2.83;;;;;;;20.44;56.51;101004.41;;;;-51
2020/06/21 10:02:33;;;;;;;9.93;3.09;;;;;;;20.46;56.47;101002.19;;;;-48
2020/06/21 10:05:32;;;;;;;8.05;2.74;;;;;;;20.47;56.25;101000.02;;;;-49
2020/06/21 10:08:32;;;;;;;12.13;2.66;;;;;;;20.48;56.17;100999.44;;;;-49
2020/06/21 10:11:32;;;;;;;7.15;2.63;;;;;;;20.49;56.29;101004.38;;;;-51
2020/06/21 10:14:32;;;;;;;7.84;2.71;;;;;;;20.50;56.63;101002.39;;;;-49
2020/06/21 10:17:32;;;;;;;7.90;2.66;;;;;;;20.52;56.22;101001.20;;;;-49
2020/06/21 10:20:32;;;;;;;6.87;2.43;;;;;;;20.53;56.24;100996.56;;;;-48
2020/06/21 10:23:33;;;;;;;11.47;2.64;;;;;;;20.54;56.18;101000.64;;;;-49
2020/06/21 10:26:32;;;;;;;8.39;3.00;;;;;;;20.54;56.48;100997.05;;;;-47
2020/06/21 10:29:32;;;;;;;6.31;2.66;;;;;;;20.55;56.38;100992.42;;;;-50
2020/06/21 10:32:32;;;;;;;5.83;2.57;;;;;;;20.56;56.37;100991.97;;;;-49
2020/06/21 10:35:32;;;;;;;7.99;2.70;;;;;;;20.57;56.47;100990.27;;;;-50
2020/06/21 10:38:32;;;;;;;7.24;2.48;;;;;;;20.58;56.38;100988.88;;;;-48
2020/06/21 10:41:32;;;;;;;9.59;2.53;;;;;;;20.59;56.45;100988.45;;;;-50
2020/06/21 10:44:32;;;;;;;7.13;2.51;;;;;;;20.60;56.56;100985.78;;;;-49
2020/06/21 10:47:32;;;;;;;9.65;2.39;;;;;;;20.60;56.33;100984.48;;;;-50
2020/06/21 10:50:32;;;;;;;6.51;2.61;;;;;;;20.61;56.31;100979.45;;;;-50
2020/06/21 10:53:32;;;;;;;7.13;2.51;;;;;;;20.61;56.32;100982.81;;;;-48
2020/06/21 10:56:32;;;;;;;5.51;2.33;;;;;;;20.60;56.23;100978.84;;;;-48
2020/06/21 10:59:32;;;;;;;6.05;2.33;;;;;;;20.58;56.23;100976.73;;;;-47
2020/06/21 11:02:32;;;;;;;4.53;2.15;;;;;;;20.58;56.15;100977.56;;;;-48
2020/06/21 11:05:32;;;;;;;8.19;2.50;;;;;;;20.58;56.15;100973.44;;;;-47
2020/06/21 11:08:32;;;;;;;4.69;2.31;;;;;;;20.57;56.05;100968.96;;;;-48
2020/06/21 11:11:32;;;;;;;5.67;2.35;;;;;;;20.56;55.99;100964.48;;;;-48
2020/06/21 11:14:32;;;;;;;6.43;2.42;;;;;;;20.57;55.99;100962.31;;;;-48
2020/06/21 11:17:32;;;;;;;4.76;2.25;;;;;;;20.56;55.91;100966.33;;;;-48
2020/06/21 11:20:33;;;;;;;6.08;2.47;;;;;;;20.55;55.80;100962.42;;;;-47
2020/06/21 11:23:32;;;;;;;3.29;2.22;;;;;;;20.55;55.82;100966.86;;;;-48
2020/06/21 11:26:32;;;;;;;2.71;2.14;;;;;;;20.55;55.85;100964.73;;;;-48
2020/06/21 11:29:32;;;;;;;4.09;2.13;;;;;;;20.55;55.75;100965.41;;;;-48
2020/06/21 11:32:32;;;;;;;3.81;2.28;;;;;;;20.54;55.75;100962.81;;;;-47
2020/06/21 11:35:33;;;;;;;5.11;2.20;;;;;;;20.54;55.69;100959.75;;;;-48
2020/06/21 11:38:32;;;;;;;5.07;2.09;;;;;;;20.53;55.71;100959.91;;;;-48
2020/06/21 11:41:32;;;;;;;3.74;2.31;;;;;;;20.53;55.71;100961.16;;;;-48
2020/06/21 11:44:32;;;;;;;3.09;2.11;;;;;;;20.52;55.68;100960.20;;;;-48
2020/06/21 11:47:32;;;;;;;3.02;2.24;;;;;;;20.53;55.64;100961.62;;;;-48
2020/06/21 11:50:32;;;;;;;3.93;2.08;;;;;;;20.52;55.65;100957.14;;;;-48
2020/06/21 11:53:32;;;;;;;2.80;2.18;;;;;;;20.52;55.67;100960.05;;;;-48
2020/06/21 11:56:32;;;;;;;4.07;2.15;;;;;;;20.52;55.64;100962.38;;;;-48
2020/06/21 11:59:32;;;;;;;2.34;2.10;;;;;;;20.52;55.56;100959.19;;;;-48
2020/06/21 12:02:32;;;;;;;5.62;2.29;;;;;;;20.52;55.64;100960.59;;;;-51
2020/06/21 12:05:32;;;;;;;4.34;2.17;;;;;;;20.54;55.61;100958.14;;;;-49
2020/06/21 12:08:32;;;;;;;5.10;2.13;;;;;;;20.56;55.60;100963.88;;;;-50
2020/06/21 12:11:32;;;;;;;3.41;2.23;;;;;;;20.58;55.66;100961.05;;;;-53
2020/06/21 12:14:32;;;;;;;4.34;2.07;;;;;;;20.59;55.72;100952.78;;;;-51
2020/06/21 12:17:32;;;;;;;4.33;2.19;;;;;;;20.61;55.74;100950.80;;;;-53
2020/06/21 12:20:32;;;;;;;5.27;2.09;;;;;;;20.62;55.73;100955.34;;;;-51
2020/06/21 12:23:32;;;;;;;4.31;2.24;;;;;;;20.62;55.80;100957.62;;;;-51
2020/06/21 12:26:32;;;;;;;4.69;2.09;;;;;;;20.62;55.74;100954.10;;;;-51
2020/06/21 12:29:32;;;;;;;4.55;2.31;;;;;;;20.62;55.81;100947.22;;;;-57
2020/06/21 12:32:32;;;;;;;4.41;2.12;;;;;;;20.63;55.80;100948.61;;;;-50
2020/06/21 12:35:32;;;;;;;3.55;2.05;;;;;;;20.65;55.86;100949.77;;;;-52
2020/06/21 12:38:33;;;;;;;3.58;2.04;;;;;;;20.65;55.73;100947.09;;;;-49
2020/06/21 12:41:32;;;;;;;4.21;2.35;;;;;;;20.67;55.83;100953.16;;;;-53
2020/06/21 12:44:32;;;;;;;2.98;2.10;;;;;;;20.68;55.96;100947.84;;;;-53
2020/06/21 12:47:32;;;;;;;6.53;2.57;;;;;;;20.71;55.90;100945.02;;;;-50
2020/06/21 12:50:32;;;;;;;6.01;2.16;;;;;;;20.71;55.90;100943.17;;;;-51
2020/06/21 12:53:32;;;;;;;2.91;2.24;;;;;;;20.72;55.82;100946.74;;;;-50
2020/06/21 12:56:32;;;;;;;5.64;2.18;;;;;;;20.71;55.81;100939.65;;;;-49
2020/06/21 12:59:32;;;;;;;5.34;2.17;;;;;;;20.69;55.85;100939.32;;;;-50
2020/06/21 13:02:32;;;;;;;5.71;2.39;;;;;;;20.69;55.77;100941.56;;;;-49
2020/06/21 13:05:32;;;;;;;4.00;1.91;;;;;;;20.68;55.81;100942.53;;;;-48
2020/06/21 13:08:32;;;;;;;4.71;2.14;;;;;;;20.67;55.79;100947.45;;;;-49
2020/06/21 13:11:32;;;;;;;3.97;2.10;;;;;;;20.66;55.90;100946.80;;;;-52
2020/06/21 13:14:32;;;;;;;6.77;2.21;;;;;;;20.68;55.92;100950.02;;;;-50
2020/06/21 13:17:32;;;;;;;3.69;2.06;;;;;;;20.67;55.69;100944.16;;;;-50
2020/06/21 13:20:32;;;;;;;3.46;2.19;;;;;;;20.67;55.73;100944.94;;;;-50
2020/06/21 13:23:32;;;;;;;3.41;2.00;;;;;;;20.66;55.73;100937.51;;;;-50
2020/06/21 13:26:32;;;;;;;4.28;2.32;;;;;;;20.66;55.72;100930.12;;;;-50
2020/06/21 13:29:32;;;;;;;4.68;2.17;;;;;;;20.65;55.71;100931.42;;;;-49
2020/06/21 13:32:32;;;;;;;2.59;2.05;;;;;;;20.65;55.67;100932.48;;;;-50
2020/06/21 13:35:32;;;;;;;3.34;2.13;;;;;;;20.66;55.62;100932.03;;;;-50
2020/06/21 13:38:32;;;;;;;4.08;2.16;;;;;;;20.65;55.57;100930.13;;;;-49
2020/06/21 13:41:32;;;;;;;3.55;2.07;;;;;;;20.66;55.55;100928.95;;;;-50
2020/06/21 13:44:32;;;;;;;2.56;2.08;;;;;;;20.65;55.59;100927.28;;;;-50
2020/06/21 13:47:32;;;;;;;2.74;1.90;;;;;;;20.65;55.54;100929.13;;;;-50
2020/06/21 13:50:32;;;;;;;3.40;2.00;;;;;;;20.63;55.51;100928.80;;;;-50
2020/06/21 13:53:32;;;;;;;3.39;2.05;;;;;;;20.63;55.53;100924.61;;;;-50
2020/06/21 13:56:32;;;;;;;4.28;2.17;;;;;;;20.63;55.45;100921.92;;;;-50
2020/06/21 13:59:32;;;;;;;2.60;2.13;;;;;;;20.63;55.44;100921.92;;;;-50
2020/06/21 14:02:32;;;;;;;4.39;2.13;;;;;;;20.62;55.46;100915.50;;;;-50
2020/06/21 14:05:32;;;;;;;2.20;1.86;;;;;;;20.62;55.45;100918.19;;;;-50
2020/06/21 14:08:32;;;;;;;2.34;1.88;;;;;;;20.62;55.45;100919.03;;;;-50
2020/06/21 14:11:32;;;;;;;2.78;1.91;;;;;;;20.62;55.41;100918.35;;;;-50
2020/06/21 14:14:32;;;;;;;3.15;2.00;;;;;;;20.61;55.42;100920.76;;;;-50
2020/06/21 14:17:32;;;;;;;3.98;2.15;;;;;;;20.61;55.56;100915.45;;;;-48
2020/06/21 14:20:32;;;;;;;3.63;2.14;;;;;;;20.64;55.65;100918.45;;;;-52
2020/06/21 14:23:32;;;;;;;3.14;1.88;;;;;;;20.66;55.71;100921.80;;;;-51
2020/06/21 14:26:32;;;;;;;2.13;1.87;;;;;;;20.68;55.75;100920.64;;;;-49
2020/06/21 14:29:32;;;;;;;2.33;1.91;;;;;;;20.69;55.86;100914.14;;;;-49
2020/06/21 14:32:32;;;;;;;4.53;2.12;;;;;;;20.71;55.85;100915.25;;;;-52
2020/06/21 14:35:32;;;;;;;3.25;1.88;;;;;;;20.72;55.75;100908.14;;;;-49
2020/06/21 14:38:32;;;;;;;4.27;2.05;;;;;;;20.72;55.91;100904.28;;;;-51
2020/06/21 14:41:32;;;;;;;4.29;2.06;;;;;;;20.72;55.77;100907.47;;;;-48
2020/06/21 14:44:32;;;;;;;2.95;1.97;;;;;;;20.73;55.86;100903.27;;;;-48
2020/06/21 14:47:32;;;;;;;3.77;2.21;;;;;;;20.74;55.93;100901.46;;;;-51
2020/06/21 14:50:32;;;;;;;3.93;2.06;;;;;;;20.75;56.05;100899.55;;;;-50
2020/06/21 14:53:32;;;;;;;2.43;1.94;;;;;;;20.76;55.99;100901.12;;;;-48
2020/06/21 14:56:32;;;;;;;2.61;1.98;;;;;;;20.77;55.88;100898.41;;;;-52
2020/06/21 14:59:32;;;;;;;3.32;1.91;;;;;;;20.78;56.03;100887.27;;;;-55
2020/06/21 15:02:32;;;;;;;3.20;1.90;;;;;;;20.79;56.11;100888.39;;;;-56
2020/06/21 15:05:32;;;;;;;3.71;1.96;;;;;;;20.80;55.95;100887.13;;;;-53
2020/06/21 15:08:32;;;;;;;2.53;2.00;;;;;;;20.80;55.98;100880.35;;;;-51
2020/06/21 15:11:32;;;;;;;3.30;2.05;;;;;;;20.81;56.06;100882.08;;;;-50
2020/06/21 15:14:32;;;;;;;4.95;2.11;;;;;;;20.82;55.93;100879.16;;;;-51
2020/06/21 15:17:32;;;;;;;4.29;1.96;;;;;;;20.83;56.02;100873.94;;;;-58
2020/06/21 15:20:32;;;;;;;4.29;1.89;;;;;;;20.84;55.94;100877.07;;;;-53
2020/06/21 15:23:32;;;;;;;2.13;1.66;;;;;;;20.84;55.98;100872.44;;;;-54
2020/06/21 15:26:32;;;;;;;3.41;1.99;;;;;;;20.84;55.89;100873.59;;;;-55
2020/06/21 15:29:32;;;;;;;2.81;1.99;;;;;;;20.85;55.86;100873.02;;;;-54
2020/06/21 15:32:32;;;;;;;2.62;2.07;;;;;;;20.85;55.91;100869.96;;;;-47
2020/06/21 15:35:32;;;;;;;3.24;2.11;;;;;;;20.86;55.89;100873.23;;;;-49
2020/06/21 15:38:32;;;;;;;3.63;1.86;;;;;;;20.86;55.85;100876.89;;;;-53
2020/06/21 15:41:32;;;;;;;3.81;2.09;;;;;;;20.87;55.98;100867.23;;;;-54
2020/06/21 15:44:32;;;;;;;2.73;1.99;;;;;;;20.88;55.82;100868.45;;;;-51
2020/06/21 15:47:32;;;;;;;8.91;2.17;;;;;;;20.89;55.82;100868.17;;;;-51
2020/06/21 15:50:32;;;;;;;2.99;1.97;;;;;;;20.89;55.80;100866.22;;;;-52
2020/06/21 15:53:32;;;;;;;3.47;1.87;;;;;;;20.91;55.84;100868.22;;;;-50
2020/06/21 15:56:32;;;;;;;4.19;2.00;;;;;;;20.91;55.73;100867.66;;;;-46
2020/06/21 15:59:32;;;;;;;3.61;1.99;;;;;;;20.90;55.74;100863.75;;;;-46
2020/06/21 16:02:32;;;;;;;4.45;2.05;;;;;;;20.90;55.91;100859.98;;;;-50
2020/06/21 16:05:32;;;;;;;3.11;2.02;;;;;;;20.92;55.83;100855.67;;;;-53
2020/06/21 16:08:32;;;;;;;5.34;2.10;;;;;;;20.94;55.74;100857.55;;;;-51
2020/06/21 16:11:32;;;;;;;5.87;2.01;;;;;;;20.94;55.82;100858.89;;;;-50
2020/06/21 16:14:32;;;;;;;4.61;2.07;;;;;;;20.96;55.78;100856.63;;;;-55
2020/06/21 16:17:32;;;;;;;2.78;1.97;;;;;;;20.96;55.75;100855.79;;;;-51
2020/06/21 16:20:32;;;;;;;3.48;2.01;;;;;;;20.99;55.58;100861.80;;;;-54
2020/06/21 16:23:32;;;;;;;3.25;1.90;;;;;;;20.98;55.53;100858.06;;;;-52
2020/06/21 16:26:32;;;;;;;5.05;2.06;;;;;;;20.98;55.66;100858.30;;;;-53
2020/06/21 16:29:32;;;;;;;3.06;1.96;;;;;;;20.97;55.56;100858.19;;;;-52
2020/06/21 16:32:32;;;;;;;3.29;1.87;;;;;;;20.96;55.53;100857.80;;;;-53
2020/06/21 16:35:32;;;;;;;4.07;1.80;;;;;;;20.95;55.49;100860.38;;;;-52
2020/06/21 16:38:32;;;;;;;4.07;1.93;;;;;;;20.95;55.51;100855.41;;;;-53
2020/06/21 16:41:32;;;;;;;5.10;1.98;;;;;;;20.95;55.49;100858.16;;;;-52
2020/06/21 16:44:32;;;;;;;3.63;1.85;;;;;;;20.94;55.56;100858.49;;;;-51